createdAt,value
2023-02-19T00:01:40.676Z,5.43
2023-02-19T00:03:43.259Z,4.82
2023-02-19T00:05:44.841Z,4.72
2023-02-19T00:07:46.442Z,4.82
2023-02-19T00:09:48.059Z,4.28
2023-02-19T00:11:49.954Z,4.78
2023-02-19T00:13:53.241Z,5.05
2023-02-19T00:15:56.385Z,4.32
2023-02-19T00:17:58.059Z,4.10
2023-02-19T00:19:59.729Z,4.28
2023-02-19T00:22:01.538Z,4.13
2023-02-19T00:24:07.600Z,5.13
2023-02-19T00:26:18.562Z,4.18
2023-02-19T00:28:20.795Z,4.10
2023-02-19T00:30:22.448Z,4.53
2023-02-19T00:32:24.196Z,3.13
2023-02-19T00:34:25.861Z,3.53
2023-02-19T00:36:28.264Z,3.88
2023-02-19T00:38:30.186Z,3.95
2023-02-19T00:40:31.852Z,3.92
2023-02-19T00:42:33.495Z,3.97
2023-02-19T00:44:35.111Z,3.80
2023-02-19T00:46:39.665Z,3.35
2023-02-19T00:48:41.437Z,3.67
2023-02-19T00:50:43.281Z,2.97
2023-02-19T00:52:45.017Z,3.65
2023-02-19T00:54:46.607Z,4.00
2023-02-19T00:56:48.770Z,4.25
2023-02-19T00:58:50.791Z,3.97
2023-02-19T01:00:52.465Z,4.25
2023-02-19T01:02:54.099Z,4.80
2023-02-19T01:04:55.804Z,4.57
2023-02-19T01:06:57.530Z,3.88
2023-02-19T01:08:59.241Z,3.92
2023-02-19T01:11:01.989Z,4.88
2023-02-19T01:13:03.641Z,5.75
2023-02-19T01:15:05.485Z,5.00
2023-02-19T01:17:07.284Z,4.88
2023-02-19T01:19:09.028Z,5.47
2023-02-19T01:21:15.630Z,6.05
2023-02-19T01:23:17.301Z,5.97
2023-02-19T01:25:19.092Z,6.70
2023-02-19T01:27:20.758Z,6.45
2023-02-19T01:29:22.372Z,6.15
2023-02-19T01:31:24.917Z,5.72
2023-02-19T01:33:26.542Z,6.80
2023-02-19T01:35:28.189Z,6.25
2023-02-19T01:37:29.938Z,6.13
2023-02-19T01:39:31.534Z,5.63
2023-02-19T01:41:36.673Z,5.60
2023-02-19T01:44:12.404Z,5.93
2023-02-19T01:46:14.060Z,5.82
2023-02-19T01:48:28.181Z,5.82
2023-02-19T01:50:32.079Z,5.55
2023-02-19T01:52:36.655Z,6.15
2023-02-19T01:54:40.565Z,4.72
2023-02-19T01:56:43.719Z,6.40
2023-02-19T01:58:45.883Z,5.60
2023-02-19T02:00:47.971Z,5.47
2023-02-19T02:02:52.264Z,5.53
2023-02-19T02:04:54.664Z,5.20
2023-02-19T02:06:57.271Z,5.88
2023-02-19T02:09:17.907Z,6.40
2023-02-19T02:11:20.766Z,6.28
2023-02-19T02:13:22.514Z,5.82
2023-02-19T02:15:29.112Z,5.55
2023-02-19T02:17:55.672Z,6.18
2023-02-19T02:20:03.666Z,5.43
2023-02-19T02:22:16.459Z,6.78
2023-02-19T02:24:36.904Z,6.28
2023-02-19T02:27:00.513Z,10.15
2023-02-19T02:29:14.352Z,6.80
2023-02-19T02:31:29.114Z,6.55
2023-02-19T02:33:41.572Z,6.13
2023-02-19T02:35:53.382Z,6.15
2023-02-19T02:37:58.505Z,7.05
2023-02-19T02:40:00.640Z,7.10
2023-02-19T02:42:20.855Z,6.60
2023-02-19T02:44:22.482Z,7.15
2023-02-19T02:46:28.546Z,7.05
2023-02-19T02:48:45.325Z,6.50
2023-02-19T02:50:58.686Z,5.93
2023-02-19T02:53:22.314Z,7.40
2023-02-19T02:55:25.347Z,6.30
2023-02-19T02:57:27.005Z,5.93
2023-02-19T02:59:37.838Z,6.85
2023-02-19T03:02:11.980Z,7.22
2023-02-19T03:04:19.296Z,6.55
2023-02-19T03:06:22.158Z,5.70
2023-02-19T03:08:29.545Z,5.95
2023-02-19T03:10:36.825Z,6.45
2023-02-19T03:12:58.147Z,6.40
2023-02-19T03:15:22.341Z,6.47
2023-02-19T03:17:51.029Z,5.40
2023-02-19T03:19:56.391Z,5.07
2023-02-19T03:22:23.869Z,5.30
2023-02-19T03:24:49.226Z,6.20
2023-02-19T03:26:54.153Z,6.15
2023-02-19T03:29:14.974Z,6.03
2023-02-19T03:31:19.855Z,5.97
2023-02-19T03:33:26.875Z,4.90
2023-02-19T03:35:32.070Z,5.65
2023-02-19T03:37:38.777Z,6.38
2023-02-19T03:39:49.416Z,5.70
2023-02-19T03:42:17.336Z,5.85
2023-02-19T03:44:41.030Z,5.72
2023-02-19T03:46:42.690Z,6.03
2023-02-19T03:49:03.424Z,4.80
2023-02-19T03:51:21.174Z,4.30
2023-02-19T03:53:40.475Z,4.38
2023-02-19T03:55:51.116Z,4.40
2023-02-19T03:57:52.815Z,3.60
2023-02-19T03:59:59.377Z,4.50
2023-02-19T04:02:05.835Z,4.43
2023-02-19T04:04:20.191Z,4.72
2023-02-19T04:06:27.881Z,4.20
2023-02-19T04:08:30.127Z,3.83
2023-02-19T04:10:32.089Z,4.10
2023-02-19T04:12:36.623Z,3.20
2023-02-19T04:14:49.446Z,3.40
2023-02-19T04:17:01.650Z,3.63
2023-02-19T04:19:06.796Z,3.28
2023-02-19T04:21:09.536Z,3.10
2023-02-19T04:23:12.736Z,3.47
2023-02-19T04:25:14.395Z,3.08
2023-02-19T04:27:16.668Z,3.33
2023-02-19T04:29:18.348Z,3.58
2023-02-19T04:31:20.122Z,3.25
2023-02-19T04:33:21.837Z,4.07
2023-02-19T04:35:23.433Z,3.38
2023-02-19T04:37:25.173Z,3.80
2023-02-19T04:39:26.894Z,3.75
2023-02-19T04:41:28.513Z,4.00
2023-02-19T04:43:30.103Z,3.45
2023-02-19T04:45:31.723Z,3.50
2023-02-19T04:47:33.428Z,4.43
2023-02-19T04:49:35.052Z,3.97
2023-02-19T04:51:36.727Z,4.13
2023-02-19T04:53:38.350Z,3.13
2023-02-19T04:55:40.039Z,3.92
2023-02-19T04:57:41.638Z,4.30
2023-02-19T04:59:43.224Z,2.92
2023-02-19T05:01:44.951Z,4.20
2023-02-19T05:03:46.614Z,3.75
2023-02-19T05:05:48.193Z,3.60
2023-02-19T05:07:49.952Z,4.35
2023-02-19T05:09:51.587Z,3.92
2023-02-19T05:11:53.249Z,4.38
2023-02-19T05:13:57.965Z,4.68
2023-02-19T05:16:13.952Z,3.78
2023-02-19T05:18:15.664Z,4.18
2023-02-19T05:20:17.406Z,4.38
2023-02-19T05:22:19.131Z,4.38
2023-02-19T05:24:20.872Z,5.45
2023-02-19T05:26:23.776Z,5.65
2023-02-19T05:28:29.132Z,6.43
2023-02-19T05:30:30.829Z,5.00
2023-02-19T05:32:35.257Z,5.80
2023-02-19T05:34:36.913Z,6.15
2023-02-19T05:36:39.179Z,6.55
2023-02-19T05:38:41.546Z,5.68
2023-02-19T05:40:43.787Z,5.72
2023-02-19T05:42:45.432Z,6.05
2023-02-19T05:44:47.040Z,6.55
2023-02-19T05:46:48.761Z,6.07
2023-02-19T05:48:51.745Z,5.72
2023-02-19T05:50:53.442Z,5.63
2023-02-19T05:52:55.155Z,6.47
2023-02-19T05:54:56.776Z,5.30
2023-02-19T05:56:58.499Z,5.72
2023-02-19T05:59:03.962Z,5.80
2023-02-19T06:01:05.606Z,5.57
2023-02-19T06:03:07.298Z,5.68
2023-02-19T06:05:09.694Z,5.43
2023-02-19T06:07:11.366Z,4.78
2023-02-19T06:09:13.005Z,6.40
2023-02-19T06:11:14.656Z,5.07
2023-02-19T06:13:17.809Z,4.82
2023-02-19T06:15:19.514Z,5.65
2023-02-19T06:17:21.152Z,5.95
2023-02-19T06:19:22.767Z,5.88
2023-02-19T06:21:24.438Z,5.53
2023-02-19T06:23:28.416Z,5.28
2023-02-19T06:25:30.105Z,5.25
2023-02-19T06:27:31.800Z,5.32
2023-02-19T06:29:34.027Z,5.18
2023-02-19T06:31:35.855Z,6.35
2023-02-19T06:33:41.561Z,5.75
2023-02-19T06:35:43.248Z,6.65
2023-02-19T06:37:47.184Z,6.60
2023-02-19T06:39:48.782Z,6.95
2023-02-19T06:41:50.637Z,5.93
2023-02-19T06:43:52.258Z,6.32
2023-02-19T06:45:59.896Z,6.32
2023-02-19T06:48:01.596Z,6.30
2023-02-19T06:50:03.259Z,6.20
2023-02-19T06:52:04.982Z,6.53
2023-02-19T06:54:06.552Z,6.88
2023-02-19T06:56:34.356Z,6.43
2023-02-19T06:58:36.040Z,6.72
2023-02-19T07:00:37.697Z,5.95
2023-02-19T07:02:39.366Z,7.43
2023-02-19T07:04:41.052Z,6.00
2023-02-19T07:06:43.103Z,7.45
2023-02-19T07:08:44.891Z,6.55
2023-02-19T07:10:46.741Z,6.38
2023-02-19T07:12:48.342Z,6.25
2023-02-19T07:14:49.920Z,7.30
2023-02-19T07:16:51.768Z,5.68
2023-02-19T07:18:53.800Z,6.00
2023-02-19T07:20:55.461Z,6.03
2023-02-19T07:22:57.525Z,6.10
2023-02-19T07:24:59.192Z,6.65
2023-02-19T07:27:00.927Z,6.18
2023-02-19T07:29:02.698Z,6.20
2023-02-19T07:31:04.963Z,6.72
2023-02-19T07:33:09.348Z,6.85
2023-02-19T07:35:12.188Z,6.97
2023-02-19T07:37:13.839Z,7.65
2023-02-19T07:39:15.973Z,6.38
2023-02-19T07:41:17.695Z,7.40
2023-02-19T07:43:19.691Z,8.43
2023-02-19T07:45:21.332Z,8.02
2023-02-19T07:47:23.154Z,7.50
2023-02-19T07:49:24.788Z,7.25
2023-02-19T07:51:26.443Z,8.48
2023-02-19T07:53:29.029Z,6.60
2023-02-19T07:55:32.707Z,6.38
2023-02-19T07:57:34.498Z,7.47
2023-02-19T07:59:36.105Z,7.85
2023-02-19T08:01:56.671Z,7.80
2023-02-19T08:04:01.527Z,8.20
2023-02-19T08:06:03.414Z,6.38
2023-02-19T08:08:09.537Z,6.97
2023-02-19T08:10:29.701Z,7.55
2023-02-19T08:12:49.855Z,7.10
2023-02-19T08:14:51.458Z,6.05
2023-02-19T08:16:53.592Z,6.30
2023-02-19T08:18:55.217Z,6.35
2023-02-19T08:20:57.521Z,5.35
2023-02-19T08:22:59.182Z,4.88
2023-02-19T08:25:00.766Z,6.25
2023-02-19T08:27:02.409Z,5.03
2023-02-19T08:29:05.014Z,5.60
2023-02-19T08:31:08.093Z,4.72
2023-02-19T08:33:11.209Z,5.35
2023-02-19T08:35:12.823Z,4.93
2023-02-19T08:37:14.462Z,4.53
2023-02-19T08:39:16.068Z,5.03
2023-02-19T08:41:17.803Z,5.53
2023-02-19T08:43:19.476Z,5.32
2023-02-19T08:45:21.351Z,4.03
2023-02-19T08:47:23.051Z,4.20
2023-02-19T08:49:27.747Z,4.15
2023-02-19T08:51:29.408Z,5.30
2023-02-19T08:53:32.517Z,3.95
2023-02-19T08:55:34.253Z,4.72
2023-02-19T08:57:37.744Z,4.50
2023-02-19T08:59:39.367Z,4.78
2023-02-19T09:01:41.355Z,3.83
2023-02-19T09:03:43.198Z,3.67
2023-02-19T09:05:46.901Z,4.38
2023-02-19T09:07:48.679Z,3.95
2023-02-19T09:09:50.283Z,4.97
2023-02-19T09:11:51.889Z,3.97
2023-02-19T09:13:56.192Z,4.22
2023-02-19T09:15:57.963Z,5.50
2023-02-19T09:18:00.377Z,4.25
2023-02-19T09:20:01.986Z,4.22
2023-02-19T09:22:04.609Z,4.28
2023-02-19T09:24:09.413Z,4.28
2023-02-19T09:26:11.524Z,4.93
2023-02-19T09:28:13.214Z,4.50
2023-02-19T09:30:15.028Z,4.90
2023-02-19T09:32:19.056Z,4.85
2023-02-19T09:34:20.947Z,4.82
2023-02-19T09:36:22.646Z,4.25
2023-02-19T09:38:24.276Z,6.25
2023-02-19T09:40:25.881Z,4.10
2023-02-19T09:42:29.975Z,4.68
2023-02-19T09:44:40.194Z,5.43
2023-02-19T09:46:47.823Z,5.03
2023-02-19T09:48:49.674Z,5.25
2023-02-19T09:50:51.335Z,5.07
2023-02-19T09:52:58.213Z,4.78
2023-02-19T09:55:09.553Z,4.55
2023-02-19T09:57:16.809Z,5.43
2023-02-19T09:59:22.242Z,5.65
2023-02-19T10:01:27.335Z,5.13
2023-02-19T10:03:34.246Z,6.45
2023-02-19T10:05:36.106Z,5.90
2023-02-19T10:07:40.376Z,5.50
2023-02-19T10:09:42.089Z,6.32
2023-02-19T10:11:43.861Z,6.00
2023-02-19T10:13:56.085Z,6.68
2023-02-19T10:15:59.413Z,6.53
2023-02-19T10:18:01.099Z,6.85
2023-02-19T10:20:04.361Z,7.97
2023-02-19T10:22:07.410Z,8.05
2023-02-19T10:24:16.944Z,9.00
2023-02-19T10:26:23.059Z,7.60
2023-02-19T10:28:30.300Z,7.75
2023-02-19T10:30:34.996Z,8.40
2023-02-19T10:32:36.710Z,7.90
2023-02-19T10:34:41.005Z,7.88
2023-02-19T10:36:42.881Z,8.15
2023-02-19T10:38:48.396Z,7.65
2023-02-19T10:40:58.429Z,8.23
2023-02-19T10:43:03.202Z,8.07
2023-02-19T10:45:05.087Z,6.75
2023-02-19T10:47:06.868Z,8.07
2023-02-19T10:49:23.627Z,6.80
2023-02-19T10:51:32.640Z,6.53
2023-02-19T10:53:46.180Z,5.60
2023-02-19T10:55:47.810Z,5.13
2023-02-19T10:57:50.538Z,5.15
2023-02-19T10:59:57.880Z,5.00
2023-02-19T11:02:02.594Z,4.50
2023-02-19T11:04:18.289Z,4.90
2023-02-19T11:06:21.864Z,4.20
2023-02-19T11:08:24.175Z,5.03
2023-02-19T11:10:36.790Z,3.67
2023-02-19T11:12:38.426Z,3.78
2023-02-19T11:14:43.697Z,3.03
2023-02-19T11:16:52.131Z,2.83
2023-02-19T11:18:57.315Z,2.30
2023-02-19T11:21:04.490Z,2.80
2023-02-19T11:23:22.326Z,2.17
2023-02-19T11:25:25.877Z,1.88
2023-02-19T11:27:27.576Z,2.38
2023-02-19T11:29:34.699Z,2.65
2023-02-19T11:31:36.499Z,2.15
2023-02-19T11:34:01.957Z,2.20
2023-02-19T11:36:15.655Z,2.10
2023-02-19T11:38:19.478Z,1.63
2023-02-19T11:40:25.540Z,1.85
2023-02-19T11:42:36.028Z,2.67
2023-02-19T11:45:04.914Z,2.10
2023-02-19T11:47:21.880Z,2.00
2023-02-19T11:49:26.144Z,2.10
2023-02-19T11:51:28.290Z,1.65
2023-02-19T11:53:32.963Z,1.95
2023-02-19T11:55:43.834Z,1.85
2023-02-19T11:57:48.700Z,2.42
2023-02-19T12:00:04.298Z,1.92
2023-02-19T12:02:20.904Z,1.83
2023-02-19T12:04:41.095Z,1.63
2023-02-19T12:06:45.809Z,2.00
2023-02-19T12:09:07.661Z,2.28
2023-02-19T12:11:12.396Z,1.60
2023-02-19T12:13:46.891Z,3.35
2023-02-19T12:16:11.470Z,2.42
2023-02-19T12:18:22.166Z,1.92
2023-02-19T12:20:31.725Z,1.63
2023-02-19T12:22:58.545Z,1.40
2023-02-19T12:25:10.939Z,1.67
2023-02-19T12:27:18.622Z,2.03
2023-02-19T12:29:38.754Z,1.23
2023-02-19T12:32:02.134Z,1.60
2023-02-19T12:34:06.944Z,1.45
2023-02-19T12:36:55.790Z,1.55
2023-02-19T12:39:22.837Z,1.33
2023-02-19T12:41:41.265Z,2.80
2023-02-19T12:43:53.490Z,1.90
2023-02-19T12:45:58.197Z,2.65
2023-02-19T12:48:05.250Z,1.88
2023-02-19T12:50:12.701Z,1.90
2023-02-19T12:52:24.399Z,1.35
2023-02-19T12:54:46.880Z,2.20
2023-02-19T12:56:55.444Z,1.75
2023-02-19T12:59:10.700Z,1.77
2023-02-19T13:01:16.443Z,2.20
2023-02-19T13:03:34.979Z,2.30
2023-02-19T13:05:51.277Z,2.42
2023-02-19T13:07:55.665Z,2.03
2023-02-19T13:10:17.513Z,2.47
2023-02-19T13:12:26.534Z,2.38
2023-02-19T13:14:32.912Z,2.17
2023-02-19T13:16:38.356Z,2.38
2023-02-19T13:18:44.915Z,3.00
2023-02-19T13:20:48.765Z,1.77
2023-02-19T13:23:18.099Z,2.22
2023-02-19T13:25:20.075Z,2.60
2023-02-19T13:27:43.198Z,1.98
2023-02-19T13:29:58.068Z,2.03
2023-02-19T13:32:21.499Z,2.38
2023-02-19T13:34:55.033Z,2.10
2023-02-19T13:36:56.786Z,1.98
2023-02-19T13:38:59.505Z,1.65
2023-02-19T13:41:01.227Z,2.55
2023-02-19T13:43:05.909Z,2.10
2023-02-19T13:45:07.677Z,2.00
2023-02-19T13:47:49.164Z,2.22
2023-02-19T13:49:50.862Z,1.52
2023-02-19T13:52:03.776Z,1.98
2023-02-19T13:54:14.276Z,1.40
2023-02-19T13:56:34.414Z,1.70
2023-02-19T13:58:37.957Z,1.70
2023-02-19T14:00:50.665Z,1.60
2023-02-19T14:03:28.676Z,1.50
2023-02-19T14:05:58.094Z,2.35
2023-02-19T14:07:59.732Z,1.90
2023-02-19T14:10:02.100Z,1.60
2023-02-19T14:12:15.036Z,1.42
2023-02-19T14:14:26.427Z,1.75
2023-02-19T14:16:50.794Z,2.17
2023-02-19T14:18:52.817Z,1.30
2023-02-19T14:21:07.405Z,2.05
2023-02-19T14:23:16.555Z,1.50
2023-02-19T14:25:38.412Z,1.75
2023-02-19T14:27:40.077Z,1.70
2023-02-19T14:29:41.799Z,1.80
2023-02-19T14:31:45.457Z,1.83
2023-02-19T14:33:50.189Z,2.17
2023-02-19T14:35:55.682Z,2.05
2023-02-19T14:37:57.460Z,1.65
2023-02-19T14:39:59.149Z,2.92
2023-02-19T14:42:03.246Z,2.30
2023-02-19T14:44:07.291Z,2.40
2023-02-19T14:46:33.638Z,2.47
2023-02-19T14:48:40.111Z,3.40
2023-02-19T14:50:42.046Z,2.53
2023-02-19T14:52:46.771Z,3.28
2023-02-19T14:54:53.407Z,2.47
2023-02-19T14:56:55.618Z,2.05
2023-02-19T14:59:12.213Z,2.08
2023-02-19T15:01:28.799Z,2.30
2023-02-19T15:03:36.439Z,1.70
2023-02-19T15:05:38.098Z,1.52
2023-02-19T15:07:41.886Z,2.00
2023-02-19T15:09:47.260Z,1.70
2023-02-19T15:11:49.333Z,1.65
2023-02-19T15:13:54.652Z,2.03
2023-02-19T15:15:57.148Z,2.03
2023-02-19T15:18:00.436Z,1.75
2023-02-19T15:20:05.804Z,1.77
2023-02-19T15:22:07.679Z,1.70
2023-02-19T15:24:09.424Z,1.75
2023-02-19T15:26:41.415Z,2.08
2023-02-19T15:28:43.209Z,1.98
2023-02-19T15:30:44.802Z,2.25
2023-02-19T15:32:57.015Z,1.77
2023-02-19T15:35:04.207Z,1.88
2023-02-19T15:37:07.882Z,1.98
2023-02-19T15:39:17.875Z,2.83
2023-02-19T15:41:23.078Z,2.38
2023-02-19T15:44:11.979Z,2.53
2023-02-19T15:46:20.881Z,2.80
2023-02-19T15:48:26.407Z,2.55
2023-02-19T15:50:31.168Z,2.38
2023-02-19T15:52:40.016Z,2.20
2023-02-19T15:55:05.289Z,3.60
2023-02-19T15:57:09.673Z,2.78
2023-02-19T15:59:26.873Z,2.55
2023-02-19T16:01:38.516Z,2.88
2023-02-19T16:03:40.290Z,3.47
2023-02-19T16:05:41.954Z,3.42
2023-02-19T16:07:44.118Z,3.25
2023-02-19T16:09:45.716Z,2.70
2023-02-19T16:11:54.819Z,3.03
2023-02-19T16:14:19.441Z,1.88
2023-02-19T16:16:30.028Z,2.00
2023-02-19T16:18:31.969Z,1.75
2023-02-19T16:20:35.113Z,2.35
2023-02-19T16:22:41.831Z,2.40
2023-02-19T16:24:46.279Z,2.75
2023-02-19T16:26:47.924Z,2.10
2023-02-19T16:28:53.334Z,2.28
2023-02-19T16:31:02.831Z,2.95
2023-02-19T16:33:42.273Z,2.85
2023-02-19T16:35:45.043Z,2.40
2023-02-19T16:37:58.448Z,2.55
2023-02-19T16:40:09.195Z,2.10
2023-02-19T16:42:12.690Z,2.20
2023-02-19T16:44:32.217Z,1.90
2023-02-19T16:46:33.921Z,2.22
2023-02-19T16:48:35.955Z,2.03
2023-02-19T16:50:41.420Z,2.00
2023-02-19T16:52:57.356Z,1.95
2023-02-19T16:55:00.186Z,2.28
2023-02-19T16:57:01.849Z,2.30
2023-02-19T16:59:04.064Z,2.28
2023-02-19T17:01:05.722Z,2.60
2023-02-19T17:03:16.800Z,2.90
2023-02-19T17:05:19.630Z,2.95
2023-02-19T17:07:22.426Z,1.73
2023-02-19T17:09:24.038Z,2.15
2023-02-19T17:11:25.674Z,1.90
2023-02-19T17:13:27.286Z,2.08
2023-02-19T17:15:29.105Z,1.98
2023-02-19T17:17:30.773Z,2.25
2023-02-19T17:19:32.381Z,2.38
2023-02-19T17:21:34.670Z,2.03
2023-02-19T17:23:36.269Z,2.60
2023-02-19T17:25:37.971Z,2.13
2023-02-19T17:27:41.410Z,2.25
2023-02-19T17:29:43.068Z,1.70
2023-02-19T17:31:45.174Z,1.75
2023-02-19T17:33:47.083Z,1.95
2023-02-19T17:35:48.719Z,2.05
2023-02-19T17:37:52.993Z,2.00
2023-02-19T17:39:54.979Z,2.53
2023-02-19T17:41:56.681Z,2.08
2023-02-19T17:43:58.338Z,3.13
2023-02-19T17:45:59.993Z,2.70
2023-02-19T17:48:01.780Z,2.83
2023-02-19T17:50:04.758Z,1.95
2023-02-19T17:52:06.857Z,2.05
2023-02-19T17:54:09.395Z,2.72
2023-02-19T17:56:16.226Z,3.40
2023-02-19T17:58:17.976Z,2.00
2023-02-19T18:00:23.548Z,2.83
2023-02-19T18:02:25.212Z,2.50
2023-02-19T18:04:26.831Z,2.42
2023-02-19T18:06:28.488Z,2.30
2023-02-19T18:08:30.273Z,2.10
2023-02-19T18:10:32.009Z,3.22
2023-02-19T18:12:33.748Z,2.15
2023-02-19T18:14:35.387Z,2.60
2023-02-19T18:16:37.078Z,2.38
2023-02-19T18:18:38.826Z,2.55
2023-02-19T18:20:40.411Z,1.85
2023-02-19T18:22:42.616Z,1.95
2023-02-19T18:24:48.494Z,2.58
2023-02-19T18:26:50.159Z,2.00
2023-02-19T18:28:51.826Z,2.67
2023-02-19T18:30:53.631Z,2.05
2023-02-19T18:32:55.442Z,2.78
2023-02-19T18:34:58.414Z,1.73
2023-02-19T18:37:00.069Z,2.50
2023-02-19T18:39:01.728Z,2.45
2023-02-19T18:41:03.450Z,1.98
2023-02-19T18:43:05.670Z,2.38
2023-02-19T18:45:07.921Z,3.85
2023-02-19T18:47:11.533Z,3.08
2023-02-19T18:49:13.626Z,3.25
2023-02-19T18:51:15.250Z,2.75
2023-02-19T18:53:17.078Z,2.65
2023-02-19T18:55:19.280Z,2.65
2023-02-19T18:57:22.474Z,2.33
2023-02-19T18:59:24.522Z,2.55
2023-02-19T19:01:26.182Z,2.25
2023-02-19T19:03:30.286Z,2.95
2023-02-19T19:05:32.061Z,2.65
2023-02-19T19:07:33.722Z,2.55
2023-02-19T19:09:36.109Z,2.17
2023-02-19T19:11:38.497Z,3.22
2023-02-19T19:13:40.115Z,3.45
2023-02-19T19:15:41.832Z,2.97
2023-02-19T19:17:43.573Z,3.28
2023-02-19T19:19:45.266Z,3.00
2023-02-19T19:21:56.024Z,2.13
2023-02-19T19:23:57.642Z,2.97
2023-02-19T19:25:59.289Z,2.60
2023-02-19T19:28:01.126Z,3.13
2023-02-19T19:30:04.360Z,2.78
2023-02-19T19:32:08.196Z,6.28
2023-02-19T19:34:11.249Z,3.83
2023-02-19T19:36:12.973Z,2.63
2023-02-19T19:38:14.648Z,2.55
2023-02-19T19:40:17.592Z,2.92
2023-02-19T19:42:19.272Z,2.40
2023-02-19T19:44:21.418Z,3.03
2023-02-19T19:46:23.184Z,2.90
2023-02-19T19:48:27.536Z,2.33
2023-02-19T19:50:29.153Z,3.00
2023-02-19T19:52:30.895Z,2.92
2023-02-19T19:54:32.527Z,2.35
2023-02-19T19:56:40.587Z,2.70
2023-02-19T19:58:42.214Z,2.80
2023-02-19T20:00:43.918Z,3.08
2023-02-19T20:02:46.483Z,2.58
2023-02-19T20:04:48.189Z,2.67
2023-02-19T20:06:50.169Z,2.95
2023-02-19T20:08:51.931Z,2.00
2023-02-19T20:10:53.604Z,2.65
2023-02-19T20:12:55.332Z,2.08
2023-02-19T20:14:56.942Z,2.13
2023-02-19T20:16:58.579Z,3.55
2023-02-19T20:19:00.477Z,3.30
2023-02-19T20:21:03.729Z,2.47
2023-02-19T20:23:05.408Z,2.75
2023-02-19T20:25:07.172Z,2.60
2023-02-19T20:27:08.880Z,3.28
2023-02-19T20:29:10.909Z,3.55
2023-02-19T20:31:12.955Z,3.35
2023-02-19T20:33:14.804Z,3.28
2023-02-19T20:35:17.717Z,3.33
2023-02-19T20:37:19.365Z,2.70
2023-02-19T20:39:22.329Z,3.38
2023-02-19T20:41:23.990Z,2.92
2023-02-19T20:43:26.865Z,2.03
2023-02-19T20:45:30.879Z,3.05
2023-02-19T20:47:32.808Z,2.67
2023-02-19T20:49:35.174Z,3.15
2023-02-19T20:51:54.904Z,3.67
2023-02-19T20:53:56.620Z,2.22
2023-02-19T20:55:58.553Z,3.72
2023-02-19T20:58:00.203Z,3.33
2023-02-19T21:00:01.939Z,3.83
2023-02-19T21:02:05.682Z,4.20
2023-02-19T21:04:07.421Z,3.80
2023-02-19T21:06:09.063Z,3.97
2023-02-19T21:08:11.822Z,2.78
2023-02-19T21:10:13.608Z,4.32
2023-02-19T21:12:15.434Z,4.10
2023-02-19T21:14:17.318Z,3.08
2023-02-19T21:16:19.072Z,3.40
2023-02-19T21:18:21.124Z,3.05
2023-02-19T21:20:22.717Z,3.47
2023-02-19T21:22:24.386Z,3.08
2023-02-19T21:24:26.261Z,3.75
2023-02-19T21:26:36.202Z,3.03
2023-02-19T21:28:38.511Z,2.22
2023-02-19T21:30:40.230Z,2.65
2023-02-19T21:32:41.908Z,2.70
2023-02-19T21:34:43.561Z,2.67
2023-02-19T21:36:45.351Z,3.72
2023-02-19T21:38:46.936Z,2.70
2023-02-19T21:40:48.601Z,2.70
2023-02-19T21:42:50.290Z,2.47
2023-02-19T21:44:51.934Z,4.22
2023-02-19T21:46:53.662Z,2.80
2023-02-19T21:48:56.732Z,3.13
2023-02-19T21:50:58.391Z,2.80
2023-02-19T21:53:00.765Z,2.80
2023-02-19T21:55:05.842Z,2.40
2023-02-19T21:57:09.509Z,2.42
2023-02-19T21:59:11.457Z,2.55
2023-02-19T22:01:13.313Z,2.45
2023-02-19T22:03:16.637Z,3.42
2023-02-19T22:05:18.339Z,2.35
2023-02-19T22:07:21.341Z,2.90
2023-02-19T22:09:23.137Z,2.92
2023-02-19T22:11:25.293Z,2.80
2023-02-19T22:13:26.942Z,3.40
2023-02-19T22:15:28.542Z,3.03
2023-02-19T22:17:30.212Z,2.63
2023-02-19T22:19:31.867Z,3.05
2023-02-19T22:21:33.594Z,3.38
2023-02-19T22:23:35.258Z,2.92
2023-02-19T22:25:36.854Z,3.47
2023-02-19T22:27:38.479Z,2.67
2023-02-19T22:29:43.202Z,2.67
2023-02-19T22:31:45.228Z,2.45
2023-02-19T22:33:47.006Z,2.90
2023-02-19T22:35:48.593Z,3.15
2023-02-19T22:37:50.241Z,3.42
2023-02-19T22:39:51.863Z,2.85
2023-02-19T22:41:54.211Z,3.30
2023-02-19T22:43:56.918Z,2.00
2023-02-19T22:45:58.569Z,2.38
2023-02-19T22:48:00.241Z,3.03
2023-02-19T22:50:02.055Z,2.75
2023-02-19T22:52:09.195Z,2.78
2023-02-19T22:54:10.848Z,3.53
2023-02-19T22:56:14.135Z,2.42
2023-02-19T22:58:15.951Z,2.55
2023-02-19T23:00:20.887Z,3.60
2023-02-19T23:02:22.576Z,3.17
2023-02-19T23:04:25.641Z,3.38
2023-02-19T23:06:29.483Z,2.90
2023-02-19T23:08:31.064Z,2.50
2023-02-19T23:10:33.136Z,2.90
2023-02-19T23:12:37.315Z,3.00
2023-02-19T23:14:38.924Z,2.88
2023-02-19T23:16:41.158Z,3.00
2023-02-19T23:18:42.822Z,2.60
2023-02-19T23:20:44.488Z,2.78
2023-02-19T23:22:46.190Z,3.90
2023-02-19T23:24:48.129Z,2.97
2023-02-19T23:26:52.139Z,2.47
2023-02-19T23:28:53.755Z,4.07
2023-02-19T23:30:55.538Z,4.00
2023-02-19T23:32:57.227Z,3.83
2023-02-19T23:34:58.822Z,3.25
2023-02-19T23:37:00.686Z,3.63
2023-02-19T23:39:02.302Z,3.47
2023-02-19T23:41:04.142Z,2.90
2023-02-19T23:43:05.839Z,3.53
2023-02-19T23:45:10.445Z,2.72
2023-02-19T23:47:12.096Z,2.63
2023-02-19T23:49:13.886Z,3.42
2023-02-19T23:51:15.639Z,3.40
2023-02-19T23:53:20.102Z,3.08
2023-02-19T23:55:21.756Z,3.60
2023-02-19T23:57:23.416Z,3.45
2023-02-19T23:59:24.994Z,3.30
